Time;durP1;ratioP1;P1;durP2;ratioP2;P2;SDS_P1;SDS_P2;PMS_P1;PMS_P2;Temp;Humidity;BMP_temperature;BMP_pressure;BME280_temperature;BME280_humidity;BME280_pressure;Samples;Min_cycle;Max_cycle;Signal;HPM_P1;HPM_P2
2022/05/08 00:00:04;;;;;;;4.32;3.95;;;21.20;49.70;;;;;;5073066;28;20037;-58
2022/05/08 00:02:30;;;;;;;5.43;4.30;;;21.30;49.80;;;;;;5073076;28;20027;-57
2022/05/08 00:04:58;;;;;;;4.53;4.13;;;21.20;49.80;;;;;;5073100;28;20020;-53
2022/05/08 00:07:24;;;;;;;3.70;3.40;;;21.20;49.80;;;;;;5072875;28;20046;-59
2022/05/08 00:09:50;;;;;;;4.68;4.28;;;21.20;49.80;;;;;;5073113;28;20025;-58
2022/05/08 00:12:16;;;;;;;4.75;3.97;;;21.20;49.90;;;;;;5073042;28;20035;-58
2022/05/08 00:14:43;;;;;;;4.63;4.15;;;21.20;49.90;;;;;;5073065;28;20032;-57
2022/05/08 00:17:13;;;;;;;4.75;4.25;;;21.20;49.90;;;;;;5073072;28;20013;-56
2022/05/08 00:19:39;;;;;;;4.50;4.10;;;21.20;49.90;;;;;;5072793;28;20016;-55
2022/05/08 00:22:06;;;;;;;4.43;4.03;;;21.20;49.90;;;;;;5072316;28;20048;-53
2022/05/08 00:24:35;;;;;;;5.18;4.10;;;21.20;49.90;;;;;;5072720;28;20017;-56
2022/05/08 00:27:02;;;;;;;4.63;4.07;;;21.20;49.90;;;;;;5072712;28;20016;-56
2022/05/08 00:29:29;;;;;;;3.95;3.60;;;21.20;49.90;;;;;;5072509;28;20021;-55
2022/05/08 00:31:54;;;;;;;8.15;4.32;;;21.20;49.90;;;;;;5072533;28;20013;-56
2022/05/08 00:34:21;;;;;;;4.18;3.70;;;21.20;49.90;;;;;;5072573;28;20031;-56
2022/05/08 00:36:48;;;;;;;5.00;4.50;;;21.20;49.90;;;;;;5072797;28;20019;-54
2022/05/08 00:39:18;;;;;;;3.65;3.35;;;21.20;49.90;;;;;;5072420;28;20025;-54
2022/05/08 00:41:45;;;;;;;4.55;4.15;;;21.20;50.00;;;;;;5072572;28;20059;-57
2022/05/08 00:44:11;;;;;;;4.35;3.95;;;21.20;50.00;;;;;;5072430;28;20021;-53
2022/05/08 00:46:38;;;;;;;4.93;3.92;;;21.20;49.90;;;;;;5072868;28;20012;-54
2022/05/08 00:49:04;;;;;;;5.32;4.10;;;21.10;49.90;;;;;;5072701;28;20005;-51
2022/05/08 00:51:31;;;;;;;4.05;3.70;;;21.10;49.90;;;;;;5072086;28;20040;-56
2022/05/08 00:53:58;;;;;;;4.50;4.05;;;21.10;49.90;;;;;;5073417;28;20096;-55
2022/05/08 00:56:24;;;;;;;4.22;3.72;;;21.10;49.90;;;;;;5073868;28;20087;-53
2022/05/08 00:58:54;;;;;;;4.03;3.63;;;21.10;49.90;;;;;;5072546;28;20017;-54
2022/05/08 01:01:20;;;;;;;4.43;3.92;;;21.10;49.90;;;;;;5074150;28;20035;-55
2022/05/08 01:03:53;;;;;;;4.03;3.63;;;21.10;49.90;;;;;;5073922;28;20028;-57
2022/05/08 01:06:19;;;;;;;4.07;3.67;;;21.10;49.90;;;;;;5072237;28;20028;-55
2022/05/08 01:08:46;;;;;;;3.78;3.47;;;21.10;49.90;;;;;;5073218;28;20036;-53
2022/05/08 01:11:12;;;;;;;3.88;3.53;;;21.10;49.90;;;;;;5071882;28;20383;-56
2022/05/08 01:13:39;;;;;;;3.90;3.60;;;21.10;49.90;;;;;;5074246;28;20033;-58
2022/05/08 01:16:12;;;;;;;4.30;3.90;;;21.10;49.90;;;;;;5075708;28;20013;-55
2022/05/08 01:18:39;;;;;;;6.05;3.88;;;21.10;49.90;;;;;;5074532;28;20078;-55
2022/05/08 01:21:12;;;;;;;3.55;3.25;;;21.10;49.90;;;;;;5072655;28;20017;-58
2022/05/08 01:23:38;;;;;;;4.38;3.97;;;21.10;49.90;;;;;;5074103;28;20043;-57
2022/05/08 01:26:05;;;;;;;4.13;3.70;;;21.10;49.90;;;;;;5072045;28;20035;-57
2022/05/08 01:28:30;;;;;;;3.53;3.20;;;21.10;49.90;;;;;;5072914;28;20391;-56
2022/05/08 01:30:56;;;;;;;4.20;3.80;;;21.10;49.90;;;;;;5073170;28;20013;-55
2022/05/08 01:33:23;;;;;;;4.00;3.60;;;21.10;49.90;;;;;;5074430;28;20055;-56
2022/05/08 01:35:49;;;;;;;4.15;3.75;;;21.10;50.00;;;;;;5076643;28;20012;-56
2022/05/08 01:38:16;;;;;;;3.58;3.28;;;21.00;49.90;;;;;;5076369;28;20471;-54
2022/05/08 01:40:43;;;;;;;4.30;3.70;;;21.10;50.00;;;;;;5076536;28;20032;-54
2022/05/08 01:43:10;;;;;;;4.03;3.42;;;21.00;49.90;;;;;;5076335;28;20029;-53
2022/05/08 01:45:36;;;;;;;4.20;3.80;;;21.00;49.90;;;;;;5076516;28;20024;-54
2022/05/08 01:50:47;;;;;;;4.13;3.63;;;21.10;49.90;;;;;;5076083;28;20024;-55
2022/05/08 01:53:14;;;;;;;5.60;3.53;;;21.00;49.90;;;;;;5076106;28;20039;-55
2022/05/08 01:55:39;;;;;;;6.00;3.85;;;21.00;49.90;;;;;;5076317;28;20017;-57
2022/05/08 01:58:06;;;;;;;3.70;3.22;;;21.00;49.90;;;;;;5076521;28;20082;-54
2022/05/08 02:00:32;;;;;;;3.63;3.28;;;21.00;49.90;;;;;;5076064;28;20078;-58
2022/05/08 02:02:59;;;;;;;4.00;3.60;;;21.00;49.90;;;;;;5076490;28;20075;-52
2022/05/08 02:05:28;;;;;;;4.00;3.60;;;21.00;49.90;;;;;;5076136;28;20016;-56
2022/05/08 02:07:53;;;;;;;3.88;3.50;;;21.00;49.90;;;;;;5076160;28;20020;-54
2022/05/08 02:10:20;;;;;;;3.72;3.40;;;21.00;49.90;;;;;;5074573;28;20025;-53
2022/05/08 02:12:46;;;;;;;4.45;3.92;;;21.00;49.90;;;;;;5076441;28;20035;-55
2022/05/08 02:15:13;;;;;;;3.95;3.50;;;21.00;49.90;;;;;;5076500;28;20096;-54
2022/05/08 02:17:39;;;;;;;5.35;3.75;;;21.00;49.90;;;;;;5076831;28;20093;-57
2022/05/08 02:20:06;;;;;;;3.72;3.40;;;21.00;49.90;;;;;;5076659;28;20013;-59
2022/05/08 02:22:33;;;;;;;3.45;3.15;;;21.00;49.90;;;;;;5076318;28;20045;-53
2022/05/08 02:25:00;;;;;;;3.35;3.05;;;21.00;49.90;;;;;;5076850;28;20072;-53
2022/05/08 02:27:38;;;;;;;3.85;3.47;;;21.00;49.90;;;;;;5076820;28;20028;-57
2022/05/08 02:30:06;;;;;;;3.75;3.40;;;21.00;49.90;;;;;;5076639;28;20096;-54
2022/05/08 02:32:33;;;;;;;5.85;3.28;;;21.00;49.90;;;;;;5076903;28;20021;-55
2022/05/08 02:35:00;;;;;;;5.00;3.10;;;21.00;49.90;;;;;;5076931;28;20044;-54
2022/05/08 02:37:27;;;;;;;4.25;3.75;;;21.00;49.90;;;;;;5076498;28;20013;-54
2022/05/08 02:39:53;;;;;;;3.33;3.03;;;21.00;49.90;;;;;;5076941;28;20021;-55
2022/05/08 02:42:19;;;;;;;3.47;3.17;;;21.00;49.80;;;;;;5077243;28;20046;-57
2022/05/08 02:44:45;;;;;;;5.03;3.33;;;21.00;49.90;;;;;;5077155;28;20429;-57
2022/05/08 02:47:11;;;;;;;4.55;3.60;;;21.00;49.90;;;;;;5076033;28;20008;-55
2022/05/08 02:49:38;;;;;;;4.47;3.45;;;21.00;49.90;;;;;;5075973;28;20468;-55
2022/05/08 02:52:04;;;;;;;3.53;3.22;;;21.00;49.90;;;;;;5075669;28;20031;-54
2022/05/08 02:54:30;;;;;;;3.70;3.30;;;21.00;49.80;;;;;;5076551;28;20032;-58
2022/05/08 02:59:42;;;;;;;3.00;2.72;;;21.00;49.90;;;;;;5077614;28;20090;-56
2022/05/08 03:02:09;;;;;;;3.97;3.30;;;21.00;49.80;;;;;;5076208;28;20459;-57
2022/05/08 03:04:35;;;;;;;3.85;3.40;;;20.90;49.70;;;;;;5077007;28;20017;-57
2022/05/08 03:07:03;;;;;;;4.28;3.33;;;21.00;49.80;;;;;;5077031;28;20031;-58
2022/05/08 03:09:47;;;;;;;3.40;3.00;;;21.00;49.80;;;;;;5076448;28;20066;-58
2022/05/08 03:12:13;;;;;;;4.20;3.22;;;21.00;49.80;;;;;;5076800;28;20028;-57
2022/05/08 03:14:39;;;;;;;4.43;3.20;;;21.00;49.80;;;;;;5077796;28;20040;-57
2022/05/08 03:17:05;;;;;;;3.47;3.17;;;20.90;49.70;;;;;;5077370;28;20040;-57
2022/05/08 03:19:31;;;;;;;5.95;3.42;;;20.90;49.70;;;;;;5077353;28;20029;-58
2022/05/08 03:21:58;;;;;;;10.05;3.53;;;20.90;49.70;;;;;;5076718;28;20047;-57
2022/05/08 03:24:24;;;;;;;4.32;3.03;;;20.90;49.70;;;;;;5076390;28;20490;-56
2022/05/08 03:26:50;;;;;;;3.72;3.15;;;20.90;49.70;;;;;;5077750;28;20024;-58
2022/05/08 03:29:16;;;;;;;3.35;2.95;;;20.90;49.70;;;;;;5073922;28;20012;-58
2022/05/08 03:31:42;;;;;;;3.70;3.40;;;20.90;49.70;;;;;;5074004;28;20516;-57
2022/05/08 03:34:08;;;;;;;4.22;3.65;;;20.90;49.70;;;;;;5075348;28;20039;-55
2022/05/08 03:36:35;;;;;;;3.80;3.10;;;20.90;49.70;;;;;;5075769;28;20047;-58
2022/05/08 03:39:01;;;;;;;3.97;2.97;;;20.90;49.70;;;;;;5076079;28;20467;-55
2022/05/08 03:41:27;;;;;;;4.30;3.53;;;20.90;49.70;;;;;;5076071;28;20032;-55
2022/05/08 03:43:55;;;;;;;3.67;3.38;;;20.90;49.70;;;;;;5074041;28;20502;-53
2022/05/08 03:46:21;;;;;;;3.92;3.17;;;20.90;49.60;;;;;;5073799;28;20485;-57
2022/05/08 03:48:48;;;;;;;5.97;3.45;;;20.90;49.60;;;;;;5073953;28;20012;-54
2022/05/08 03:51:15;;;;;;;3.95;3.53;;;20.90;49.70;;;;;;5074057;28;20020;-51
2022/05/08 03:53:42;;;;;;;3.92;3.25;;;20.90;49.70;;;;;;5073417;28;20040;-55
2022/05/08 03:56:09;;;;;;;4.65;3.42;;;20.90;49.60;;;;;;5073589;28;20083;-52
2022/05/08 03:58:36;;;;;;;3.83;3.45;;;20.90;49.60;;;;;;5074909;28;20802;-57
2022/05/08 04:01:02;;;;;;;5.40;2.83;;;20.90;49.60;;;;;;5077620;28;20028;-55
2022/05/08 04:03:29;;;;;;;3.95;3.17;;;20.90;49.60;;;;;;5077319;28;20093;-55
2022/05/08 04:05:55;;;;;;;4.50;3.10;;;20.90;49.60;;;;;;5077350;28;20070;-58
2022/05/08 04:08:22;;;;;;;3.78;3.10;;;20.90;49.60;;;;;;5076953;28;20012;-57
2022/05/08 04:10:49;;;;;;;3.55;3.25;;;20.90;49.60;;;;;;5077104;28;20024;-56
2022/05/08 04:13:17;;;;;;;3.10;2.80;;;20.90;49.60;;;;;;5076861;28;20025;-54
2022/05/08 04:18:28;;;;;;;3.35;3.05;;;20.80;49.60;;;;;;5076908;28;20491;-55
2022/05/08 04:20:54;;;;;;;3.58;2.80;;;20.90;49.60;;;;;;5076543;28;20142;-55
2022/05/08 04:26:05;;;;;;;4.65;3.08;;;20.80;49.50;;;;;;5075500;28;20090;-54
2022/05/08 04:28:31;;;;;;;3.30;2.95;;;20.80;49.60;;;;;;5074299;28;20016;-55
2022/05/08 04:30:57;;;;;;;4.28;3.13;;;20.90;49.60;;;;;;5076518;28;20012;-53
2022/05/08 04:33:23;;;;;;;3.38;2.92;;;20.90;49.60;;;;;;5074830;28;20035;-53
2022/05/08 04:35:49;;;;;;;3.50;3.20;;;20.80;49.50;;;;;;5075639;28;20023;-52
2022/05/08 04:38:15;;;;;;;3.40;2.75;;;20.80;49.50;;;;;;5077113;28;20017;-54
2022/05/08 04:40:41;;;;;;;3.45;3.15;;;20.80;49.50;;;;;;5077651;28;20047;-56
2022/05/08 04:43:08;;;;;;;4.55;2.92;;;20.80;49.50;;;;;;5079740;28;20028;-57
2022/05/08 04:45:34;;;;;;;3.60;3.17;;;20.80;49.50;;;;;;5080811;28;20053;-56
2022/05/08 04:48:00;;;;;;;4.22;3.08;;;20.80;49.60;;;;;;5078699;28;20498;-55
2022/05/08 04:50:26;;;;;;;3.67;3.08;;;20.80;49.50;;;;;;5074779;28;20020;-54
2022/05/08 04:52:52;;;;;;;4.20;2.72;;;20.80;49.50;;;;;;5073506;28;20036;-54
2022/05/08 04:55:18;;;;;;;3.33;3.03;;;20.80;49.50;;;;;;5074436;28;20532;-52
2022/05/08 04:57:43;;;;;;;3.28;2.97;;;20.80;49.50;;;;;;5073339;28;20448;-55
2022/05/08 05:00:10;;;;;;;4.07;2.83;;;20.80;49.50;;;;;;5074833;28;20039;-52
2022/05/08 05:02:37;;;;;;;4.28;3.40;;;20.80;49.50;;;;;;5074771;28;20031;-53
2022/05/08 05:05:06;;;;;;;4.15;3.30;;;20.80;49.50;;;;;;5074932;28;20020;-56
2022/05/08 05:07:31;;;;;;;3.42;3.13;;;20.80;49.40;;;;;;5075477;28;20029;-54
2022/05/08 05:09:58;;;;;;;4.13;3.22;;;20.80;49.50;;;;;;5078110;28;20100;-54
2022/05/08 05:12:25;;;;;;;4.13;2.80;;;20.80;49.40;;;;;;5078702;28;20052;-53
2022/05/08 05:14:51;;;;;;;4.70;3.30;;;20.80;49.40;;;;;;5080002;28;20020;-55
2022/05/08 05:17:17;;;;;;;6.70;2.95;;;20.80;49.40;;;;;;5080372;28;20092;-55
2022/05/08 05:19:43;;;;;;;3.22;2.90;;;20.80;49.50;;;;;;5079035;28;20008;-53
2022/05/08 05:22:09;;;;;;;3.38;2.92;;;20.80;49.40;;;;;;5078434;28;20048;-53
2022/05/08 05:24:36;;;;;;;4.05;2.80;;;20.80;49.40;;;;;;5079154;28;20016;-55
2022/05/08 05:27:03;;;;;;;3.88;3.00;;;20.80;49.40;;;;;;5079463;28;20016;-54
2022/05/08 05:29:30;;;;;;;3.30;3.00;;;20.80;49.40;;;;;;5079087;28;20012;-54
2022/05/08 05:31:56;;;;;;;4.38;3.08;;;20.80;49.40;;;;;;5078963;28;20013;-55
2022/05/08 05:34:22;;;;;;;5.25;2.97;;;20.80;49.40;;;;;;5079733;28;20395;-52
2022/05/08 05:36:49;;;;;;;3.13;2.83;;;20.80;49.40;;;;;;5079877;28;20058;-53
2022/05/08 05:39:16;;;;;;;3.83;3.03;;;20.80;49.40;;;;;;5080431;28;20020;-56
2022/05/08 05:41:41;;;;;;;2.70;2.50;;;20.80;49.40;;;;;;5080555;28;20008;-57
2022/05/08 05:44:07;;;;;;;3.42;2.70;;;20.80;49.40;;;;;;5080332;28;20082;-57
2022/05/08 05:49:17;;;;;;;3.58;2.78;;;20.80;49.40;;;;;;5079619;28;20514;-55
2022/05/08 05:51:43;;;;;;;3.78;3.03;;;20.80;49.40;;;;;;5061246;28;20535;-53
2022/05/08 05:54:09;;;;;;;3.22;2.90;;;20.80;49.40;;;;;;5078772;28;20105;-54
2022/05/08 05:56:35;;;;;;;3.58;3.05;;;20.80;49.40;;;;;;5078774;28;20055;-57
2022/05/08 05:59:01;;;;;;;5.30;3.20;;;20.80;49.40;;;;;;5080285;28;20020;-56
2022/05/08 06:01:28;;;;;;;4.30;3.20;;;20.80;49.40;;;;;;5078607;28;20013;-57
2022/05/08 06:03:54;;;;;;;3.53;2.95;;;20.80;49.40;;;;;;5078817;28;20108;-52
2022/05/08 06:06:20;;;;;;;4.78;3.08;;;20.80;49.40;;;;;;5079042;28;20025;-55
2022/05/08 06:08:47;;;;;;;3.40;3.10;;;20.80;49.40;;;;;;5078629;28;20024;-53
2022/05/08 06:11:15;;;;;;;3.85;3.15;;;20.80;49.30;;;;;;5078289;28;20016;-54
2022/05/08 06:13:41;;;;;;;3.17;2.88;;;20.80;49.40;;;;;;5077994;28;20387;-54
2022/05/08 06:16:09;;;;;;;3.92;2.83;;;20.80;49.30;;;;;;5078273;28;20021;-54
2022/05/08 06:18:35;;;;;;;2.70;2.50;;;20.80;49.30;;;;;;5077790;28;20070;-51
2022/05/08 06:21:02;;;;;;;6.88;3.33;;;20.80;49.20;;;;;;5077854;28;20048;-51
2022/05/08 06:23:28;;;;;;;3.08;2.70;;;20.80;49.20;;;;;;5078215;28;20024;-50
2022/05/08 06:25:55;;;;;;;3.80;2.60;;;20.80;49.20;;;;;;5078161;28;20025;-56
2022/05/08 06:28:21;;;;;;;4.18;2.83;;;20.80;49.20;;;;;;5077711;28;20537;-51
2022/05/08 06:30:48;;;;;;;3.50;3.20;;;20.80;49.20;;;;;;5077718;28;20020;-54
2022/05/08 06:33:14;;;;;;;4.43;2.90;;;20.80;49.20;;;;;;5077475;28;20031;-54
2022/05/08 06:35:40;;;;;;;3.45;3.15;;;20.80;49.20;;;;;;5077861;28;20009;-50
2022/05/08 06:38:12;;;;;;;3.90;2.70;;;20.80;49.10;;;;;;5077848;28;20103;-53
2022/05/08 06:40:42;;;;;;;2.90;2.60;;;20.80;49.10;;;;;;5061472;28;20019;-57
2022/05/08 06:43:14;;;;;;;2.80;2.47;;;20.80;49.00;;;;;;5078554;28;20024;-55
2022/05/08 06:45:40;;;;;;;3.83;3.10;;;20.80;49.00;;;;;;5080152;28;20017;-56
2022/05/08 06:48:06;;;;;;;2.58;2.35;;;20.90;49.00;;;;;;5078700;28;20017;-55
2022/05/08 06:50:33;;;;;;;2.85;2.42;;;20.90;49.10;;;;;;5077426;28;20520;-59
2022/05/08 06:53:00;;;;;;;3.50;2.92;;;20.90;49.00;;;;;;5077710;28;20071;-59
2022/05/08 06:55:26;;;;;;;2.70;2.50;;;20.90;49.00;;;;;;5078194;28;20021;-59
2022/05/08 06:57:51;;;;;;;3.05;2.70;;;20.90;49.00;;;;;;5077498;28;20374;-59
2022/05/08 07:03:07;;;;;;;2.72;2.45;;;20.90;48.90;;;;;;5077364;28;20120;-60
2022/05/08 07:05:36;;;;;;;3.17;2.65;;;20.90;48.90;;;;;;5076073;28;20029;-58
2022/05/08 07:08:01;;;;;;;3.38;2.38;;;20.90;48.90;;;;;;5076585;28;20024;-59
2022/05/08 07:10:28;;;;;;;5.38;2.70;;;20.90;48.80;;;;;;5075507;28;20023;-59
2022/05/08 07:12:55;;;;;;;3.22;2.67;;;20.90;48.80;;;;;;5076379;28;20085;-59
2022/05/08 07:15:22;;;;;;;3.38;2.58;;;20.90;48.70;;;;;;5076474;28;20013;-59
2022/05/08 07:17:49;;;;;;;4.22;2.80;;;20.90;48.80;;;;;;5077563;28;20023;-60
2022/05/08 07:20:17;;;;;;;2.60;2.40;;;20.90;48.80;;;;;;5077224;28;20017;-59
2022/05/08 07:22:44;;;;;;;3.65;2.58;;;20.90;48.70;;;;;;5076453;28;20518;-59
2022/05/08 07:25:14;;;;;;;3.17;2.78;;;21.00;48.80;;;;;;5076619;28;20035;-59
2022/05/08 07:27:40;;;;;;;3.25;2.55;;;20.90;48.70;;;;;;5077318;28;20020;-59
2022/05/08 07:30:06;;;;;;;2.70;2.50;;;20.90;48.70;;;;;;5077720;28;20027;-60
2022/05/08 07:32:36;;;;;;;2.92;2.47;;;20.90;48.70;;;;;;5079629;28;20020;-59
2022/05/08 07:37:47;;;;;;;3.70;2.60;;;20.90;48.60;;;;;;5080904;28;20027;-59
2022/05/08 07:40:13;;;;;;;5.15;2.70;;;20.90;48.60;;;;;;5079559;28;20025;-59
2022/05/08 07:42:39;;;;;;;2.90;2.60;;;21.00;48.60;;;;;;5076843;28;20444;-59
2022/05/08 07:45:06;;;;;;;2.38;2.17;;;21.00;48.60;;;;;;5073420;28;20028;-58
2022/05/08 07:47:31;;;;;;;2.78;2.30;;;21.00;48.50;;;;;;5073201;28;20502;-58
2022/05/08 07:49:57;;;;;;;2.88;2.50;;;20.90;48.50;;;;;;5072031;28;20021;-59
2022/05/08 07:52:23;;;;;;;3.38;2.25;;;20.90;48.50;;;;;;5073089;28;20029;-58
2022/05/08 07:54:48;;;;;;;5.18;2.65;;;21.00;48.50;;;;;;5072186;28;20013;-59
2022/05/08 07:57:15;;;;;;;7.78;2.92;;;21.00;48.50;;;;;;5074198;28;20480;-59
2022/05/08 07:59:41;;;;;;;2.58;2.25;;;20.90;48.40;;;;;;5076849;28;20078;-59
2022/05/08 08:02:07;;;;;;;3.30;2.65;;;21.00;48.50;;;;;;5076449;28;20100;-59
2022/05/08 08:04:37;;;;;;;4.30;2.72;;;21.00;48.50;;;;;;5076249;28;20025;-58
2022/05/08 08:07:03;;;;;;;2.35;2.13;;;20.90;48.30;;;;;;5075892;28;20020;-58
2022/05/08 08:09:29;;;;;;;3.17;2.78;;;21.00;48.40;;;;;;5075604;28;20531;-59
2022/05/08 08:11:56;;;;;;;3.60;2.50;;;21.00;48.30;;;;;;5075658;28;20017;-59
2022/05/08 08:14:21;;;;;;;2.35;2.15;;;21.00;48.30;;;;;;5074232;28;20036;-58
2022/05/08 08:16:48;;;;;;;3.05;2.35;;;21.00;48.20;;;;;;5074608;28;20536;-59
2022/05/08 08:19:15;;;;;;;2.40;1.88;;;21.00;48.20;;;;;;5074612;28;20048;-59
2022/05/08 08:21:42;;;;;;;3.75;2.50;;;21.00;48.10;;;;;;5074829;28;20036;-59
2022/05/08 08:24:08;;;;;;;5.35;2.97;;;21.00;48.10;;;;;;5074745;28;20036;-60
2022/05/08 08:26:36;;;;;;;2.80;2.25;;;21.00;48.00;;;;;;5074633;28;20033;-58
2022/05/08 08:29:02;;;;;;;3.42;2.22;;;21.00;48.10;;;;;;5073261;28;20020;-58
2022/05/08 08:31:28;;;;;;;3.45;2.53;;;21.00;48.00;;;;;;5073312;28;20067;-59
2022/05/08 08:33:54;;;;;;;3.13;2.33;;;21.00;48.10;;;;;;5072900;28;20494;-58
2022/05/08 08:36:20;;;;;;;3.28;2.50;;;21.00;48.00;;;;;;5073365;28;20036;-58
2022/05/08 08:38:47;;;;;;;3.35;2.47;;;21.00;48.00;;;;;;5073134;28;20091;-58
2022/05/08 08:41:13;;;;;;;2.42;2.22;;;21.00;48.00;;;;;;5073009;28;20013;-58
2022/05/08 08:49:24;;;;;;;2.80;2.50;;;21.00;47.80;;;;;;5078664;28;20054;-58
2022/05/08 08:51:50;;;;;;;3.35;2.50;;;21.00;47.80;;;;;;5077563;28;20013;-59
2022/05/08 08:54:20;;;;;;;3.50;2.53;;;21.00;47.80;;;;;;5076911;28;20028;-58
2022/05/08 08:56:46;;;;;;;3.25;2.28;;;21.00;47.70;;;;;;5077626;28;20091;-58
2022/05/08 08:59:12;;;;;;;3.40;2.50;;;21.00;47.70;;;;;;5077166;28;20084;-56
2022/05/08 09:01:42;;;;;;;2.75;2.40;;;21.00;47.70;;;;;;5077097;28;20028;-58
2022/05/08 09:04:09;;;;;;;2.17;1.90;;;21.00;47.70;;;;;;5077410;28;20506;-59
2022/05/08 09:06:42;;;;;;;3.67;2.50;;;21.10;47.70;;;;;;5077216;28;20479;-56
2022/05/08 09:09:24;;;;;;;5.00;2.60;;;21.10;47.60;;;;;;5077426;28;20021;-59
2022/05/08 09:11:51;;;;;;;3.08;2.50;;;21.10;47.60;;;;;;5076954;28;20021;-57
2022/05/08 09:14:30;;;;;;;2.45;2.20;;;21.10;47.60;;;;;;5077956;28;20029;-54
2022/05/08 09:16:56;;;;;;;2.55;2.17;;;21.10;47.50;;;;;;5077580;28;20015;-55
2022/05/08 09:19:38;;;;;;;2.55;2.30;;;21.10;47.60;;;;;;5077228;28;20071;-53
2022/05/08 09:22:08;;;;;;;3.28;2.42;;;21.10;47.50;;;;;;5076915;28;20044;-56
2022/05/08 09:24:35;;;;;;;5.22;2.25;;;21.10;47.50;;;;;;5077975;28;20008;-58
2022/05/08 09:27:14;;;;;;;2.55;2.20;;;21.10;47.40;;;;;;5077951;28;20017;-53
2022/05/08 09:29:40;;;;;;;3.33;2.00;;;21.10;47.30;;;;;;5078109;28;20096;-57
2022/05/08 09:32:07;;;;;;;5.95;2.20;;;21.10;47.50;;;;;;5079232;28;20015;-57
2022/05/08 09:34:58;;;;;;;2.67;2.10;;;21.10;47.40;;;;;;5077194;28;20108;-56
2022/05/08 09:37:24;;;;;;;2.83;2.40;;;21.10;47.40;;;;;;5078309;28;20025;-58
2022/05/08 09:39:51;;;;;;;2.85;1.98;;;21.10;47.30;;;;;;5076602;28;20017;-58
2022/05/08 09:42:37;;;;;;;2.65;2.45;;;21.10;47.20;;;;;;5076813;28;20031;-58
2022/05/08 09:45:07;;;;;;;3.53;2.40;;;21.10;47.30;;;;;;5077513;28;20013;-59
2022/05/08 09:47:46;;;;;;;3.65;2.40;;;21.10;47.30;;;;;;5077584;28;20109;-58
2022/05/08 09:50:12;;;;;;;2.60;2.00;;;21.10;47.10;;;;;;5077201;28;20062;-58
2022/05/08 09:52:39;;;;;;;3.63;2.22;;;21.10;47.10;;;;;;5076585;28;20104;-51
2022/05/08 09:55:10;;;;;;;4.47;2.20;;;21.10;47.20;;;;;;5076718;28;20009;-53
2022/05/08 09:57:37;;;;;;;5.32;2.08;;;21.10;47.10;;;;;;5076366;28;20016;-53
2022/05/08 10:00:04;;;;;;;5.10;2.30;;;21.10;47.00;;;;;;5075733;28;20044;-55
2022/05/08 10:02:37;;;;;;;2.50;2.10;;;21.10;47.10;;;;;;5075323;28;20044;-55
2022/05/08 10:05:03;;;;;;;2.40;2.08;;;21.10;46.80;;;;;;5075256;28;20020;-57
2022/05/08 10:07:30;;;;;;;2.45;1.90;;;21.10;47.10;;;;;;5075094;28;20479;-55
2022/05/08 10:15:30;;;;;;;2.63;1.90;;;21.10;46.90;;;;;;5075243;28;20085;-56
2022/05/08 10:18:36;;;;;;;3.42;2.00;;;21.10;46.90;;;;;;5075171;28;20025;-55
2022/05/08 10:21:07;;;;;;;2.85;1.98;;;21.20;46.80;;;;;;5052891;28;20145;-52
2022/05/08 10:23:36;;;;;;;3.13;2.15;;;21.10;46.80;;;;;;5052802;28;20507;-56
2022/05/08 10:26:19;;;;;;;2.58;1.90;;;21.10;46.40;;;;;;5052940;28;20479;-51
2022/05/08 10:29:03;;;;;;;2.58;2.25;;;21.10;46.50;;;;;;5052919;28;20547;-55
2022/05/08 10:31:55;;;;;;;2.60;2.03;;;21.20;46.40;;;;;;5035846;28;20028;-55
2022/05/08 10:34:31;;;;;;;9.02;2.92;;;21.20;46.60;;;;;;5050028;28;20037;-54
2022/05/08 10:37:12;;;;;;;2.70;2.15;;;21.20;46.60;;;;;;5052788;28;20033;-55
2022/05/08 10:39:48;;;;;;;2.67;2.20;;;21.10;46.40;;;;;;5052752;28;20013;-54
2022/05/08 10:42:29;;;;;;;3.80;2.28;;;21.20;46.60;;;;;;5053352;28;20060;-58
2022/05/08 10:44:56;;;;;;;3.30;1.95;;;21.20;46.50;;;;;;5055328;28;20083;-57
2022/05/08 10:47:33;;;;;;;3.13;2.10;;;21.10;46.40;;;;;;5055059;28;20013;-58
2022/05/08 10:50:05;;;;;;;3.17;2.20;;;21.20;46.60;;;;;;5055230;28;20175;-55
2022/05/08 10:52:31;;;;;;;3.50;2.20;;;21.10;46.20;;;;;;5038447;28;20090;-54
2022/05/08 10:54:57;;;;;;;5.85;2.03;;;21.10;46.50;;;;;;5055371;28;20021;-55
2022/05/08 10:57:32;;;;;;;5.50;2.47;;;21.20;46.30;;;;;;5072352;28;20033;-57
2022/05/08 10:59:57;;;;;;;3.95;2.00;;;21.20;46.30;;;;;;5074545;28;20034;-55
2022/05/08 11:02:39;;;;;;;3.38;2.22;;;21.20;46.40;;;;;;5074703;28;20475;-53
2022/05/08 11:05:06;;;;;;;2.83;2.30;;;21.10;46.30;;;;;;5073580;28;20490;-55
2022/05/08 11:07:32;;;;;;;3.33;1.98;;;21.20;46.30;;;;;;5074106;28;20032;-55
2022/05/08 11:09:58;;;;;;;4.15;1.90;;;21.20;46.00;;;;;;5073517;28;20025;-56
2022/05/08 11:12:24;;;;;;;3.00;2.10;;;21.20;46.10;;;;;;5074075;28;20475;-55
2022/05/08 11:14:50;;;;;;;5.55;2.40;;;21.20;46.00;;;;;;5074255;28;20009;-53
2022/05/08 11:17:16;;;;;;;3.67;2.47;;;21.20;45.90;;;;;;5074411;28;20009;-56
2022/05/08 11:19:52;;;;;;;3.13;2.00;;;21.20;45.60;;;;;;5074490;28;20092;-57
2022/05/08 11:22:18;;;;;;;2.88;2.00;;;21.20;45.60;;;;;;5073014;28;20029;-54
2022/05/08 11:24:49;;;;;;;3.08;1.80;;;21.20;45.60;;;;;;5073849;28;20072;-56
2022/05/08 11:27:15;;;;;;;3.97;2.00;;;21.20;45.70;;;;;;5073300;28;20017;-57
2022/05/08 11:29:49;;;;;;;4.00;2.13;;;21.20;45.50;;;;;;5074075;28;20468;-54
2022/05/08 11:38:02;;;;;;;5.18;2.22;;;21.20;44.50;;;;;;5074833;28;20027;-56
2022/05/08 11:40:27;;;;;;;2.63;1.80;;;21.30;45.70;;;;;;5074588;28;20008;-56
2022/05/08 11:42:53;;;;;;;3.00;1.80;;;21.20;45.60;;;;;;5072975;28;20476;-54
2022/05/08 11:45:19;;;;;;;4.43;2.22;;;21.30;45.50;;;;;;5074960;28;20028;-55
2022/05/08 11:47:53;;;;;;;2.55;1.60;;;21.20;45.30;;;;;;5073414;28;20088;-57
2022/05/08 11:50:19;;;;;;;2.72;1.73;;;21.30;45.70;;;;;;5074951;28;20024;-55
2022/05/08 11:52:45;;;;;;;2.83;1.90;;;21.30;44.90;;;;;;5090336;28;20441;-57
2022/05/08 11:55:11;;;;;;;3.03;1.90;;;21.30;45.30;;;;;;5075125;28;20036;-57
2022/05/08 11:57:44;;;;;;;2.53;1.67;;;21.30;45.40;;;;;;5077020;28;20023;-56
2022/05/08 12:00:11;;;;;;;2.55;1.80;;;21.30;44.50;;;;;;5078513;28;20091;-55
2022/05/08 12:02:41;;;;;;;3.47;2.00;;;21.30;45.10;;;;;;5079371;28;20078;-57
2022/05/08 12:05:22;;;;;;;3.58;1.90;;;21.30;45.20;;;;;;5079144;28;20008;-53
2022/05/08 12:07:55;;;;;;;2.17;1.75;;;21.30;45.10;;;;;;5079326;28;20028;-57
2022/05/08 12:10:26;;;;;;;3.15;2.03;;;21.30;44.90;;;;;;5094076;28;20020;-58
2022/05/08 12:13:03;;;;;;;2.20;1.75;;;21.30;45.10;;;;;;5076457;28;20493;-56
2022/05/08 12:15:30;;;;;;;2.53;1.73;;;21.30;45.10;;;;;;5076818;28;20020;-54
2022/05/08 12:17:58;;;;;;;2.45;1.80;;;21.30;44.90;;;;;;5077089;28;20025;-56
2022/05/08 12:20:28;;;;;;;2.88;2.00;;;21.40;45.00;;;;;;5077370;28;20044;-53
2022/05/08 12:22:57;;;;;;;5.13;1.80;;;21.30;45.00;;;;;;5076516;28;20048;-57
2022/05/08 12:25:31;;;;;;;2.55;1.80;;;21.30;44.70;;;;;;5076448;28;20107;-57
2022/05/08 12:27:57;;;;;;;3.47;1.77;;;21.30;44.90;;;;;;5076278;28;20032;-56
2022/05/08 12:30:23;;;;;;;3.60;1.90;;;21.30;44.80;;;;;;5075606;28;20016;-54
2022/05/08 12:32:49;;;;;;;1.92;1.60;;;21.30;44.60;;;;;;5074686;28;20029;-51
2022/05/08 12:35:16;;;;;;;2.70;1.63;;;21.40;44.80;;;;;;5075397;28;20092;-51
2022/05/08 12:37:43;;;;;;;2.88;1.70;;;21.40;44.60;;;;;;5075140;28;20070;-56
2022/05/08 12:40:10;;;;;;;2.13;1.40;;;21.40;44.80;;;;;;5076058;28;20065;-53
2022/05/08 12:42:36;;;;;;;1.92;1.70;;;21.40;44.60;;;;;;5076326;28;20676;-56
2022/05/08 12:45:02;;;;;;;2.13;1.65;;;21.30;44.80;;;;;;5077294;28;20064;-56
2022/05/08 12:47:28;;;;;;;3.45;2.10;;;21.30;44.70;;;;;;5076814;28;20472;-53
2022/05/08 12:49:53;;;;;;;3.50;1.60;;;21.40;44.70;;;;;;5076340;28;20027;-52
2022/05/08 12:52:20;;;;;;;3.03;1.80;;;21.40;44.60;;;;;;5077589;28;20669;-51
2022/05/08 12:54:46;;;;;;;3.05;1.90;;;21.40;44.30;;;;;;5077538;28;20027;-54
2022/05/08 12:59:42;;;;;;;1.77;1.30;;;21.40;44.50;;;;;;5077939;28;20017;-56
2022/05/08 12:59:58;;;;;;;2.85;1.73;;;21.40;44.40;;;;;;5075042;28;20067;-56
2022/05/08 13:02:26;;;;;;;2.75;1.70;;;21.40;44.40;;;;;;5074801;28;20016;-56
2022/05/08 13:04:52;;;;;;;2.00;1.70;;;21.40;44.40;;;;;;5076018;28;20028;-57
2022/05/08 13:07:18;;;;;;;2.88;1.45;;;21.40;44.00;;;;;;5042246;28;20021;-58
2022/05/08 13:09:44;;;;;;;2.92;1.50;;;21.50;44.20;;;;;;5076374;28;20016;-56
2022/05/08 13:12:10;;;;;;;2.97;1.58;;;21.50;43.50;;;;;;5074693;28;20536;-57
2022/05/08 13:14:36;;;;;;;3.10;1.65;;;21.50;44.00;;;;;;5071762;28;20121;-54
2022/05/08 13:17:04;;;;;;;2.63;1.70;;;21.50;44.00;;;;;;5072760;28;20051;-54
2022/05/08 13:19:33;;;;;;;3.47;1.70;;;21.50;43.90;;;;;;5072668;28;20103;-57
2022/05/08 13:21:59;;;;;;;2.38;1.58;;;21.50;43.80;;;;;;5072450;28;20111;-54
2022/05/08 13:24:25;;;;;;;2.88;1.40;;;21.50;43.70;;;;;;5072380;28;20024;-54
2022/05/08 13:26:54;;;;;;;2.17;1.45;;;21.60;43.90;;;;;;5071330;28;20035;-50